Time,TemperatureF,DewpointF,PressureIn,WindDirection,WindDirectionDegrees,WindSpeedMPH,WindSpeedGustMPH,Humidity,HourlyPrecipIn,Conditions,Clouds,dailyrainin,SoftwareType,DateUTC
2013-02-20 00:02:00,17.0,12.0,29.82,SW,234,8.0,-999.0,82,-99.99,,,-99.99,,2013-02-20 05:02:00,
2013-02-20 00:12:00,17.0,12.0,29.82,SW,234,8.0,-999.0,82,-99.99,,,-99.99,,2013-02-20 05:12:00,
2013-02-20 00:22:00,17.0,12.0,29.83,West,270,4.0,-999.0,82,-99.99,,,-99.99,,2013-02-20 05:22:00,
2013-02-20 00:32:00,17.0,12.0,29.83,West,270,4.0,-999.0,82,-99.99,,,-99.99,,2013-02-20 05:32:00,
2013-02-20 00:43:00,17.0,12.0,29.83,West,270,4.0,-999.0,82,-99.99,,,-99.99,,2013-02-20 05:43:00,
2013-02-20 00:52:00,17.0,13.0,29.83,SW,227,5.0,-999.0,83,-99.99,,,-99.99,,2013-02-20 05:52:00,
2013-02-20 01:02:00,16.0,12.0,29.84,SW,234,6.0,-999.0,83,-99.99,,,-99.99,,2013-02-20 06:02:00,
2013-02-20 01:11:00,16.0,12.0,29.84,SW,234,6.0,-999.0,83,-99.99,,,-99.99,,2013-02-20 06:11:00,
2013-02-20 01:22:00,16.0,12.0,29.84,South,174,7.0,-999.0,83,-99.99,,,-99.99,,2013-02-20 06:22:00,
2013-02-20 01:32:00,16.0,12.0,29.85,SW,234,9.0,-999.0,83,-99.99,,,-99.99,,2013-02-20 06:32:00,
2013-02-20 01:42:00,16.0,12.0,29.85,SW,234,9.0,-999.0,83,-99.99,,,-99.99,,2013-02-20 06:42:00,
2013-02-20 01:52:00,15.0,11.0,29.85,WSW,237,8.0,-999.0,82,-99.99,,,-99.99,,2013-02-20 06:52:00,
2013-02-20 02:02:00,15.0,11.0,29.85,SSW,208,6.0,-999.0,82,-99.99,,,-99.99,,2013-02-20 07:02:00,
2013-02-20 02:11:00,15.0,11.0,29.85,SSW,208,6.0,-999.0,82,-99.99,,,-99.99,,2013-02-20 07:11:00,
2013-02-20 02:21:00,15.0,10.0,29.86,WSW,257,7.0,-999.0,81,-99.99,,,-99.99,,2013-02-20 07:21:00,
2013-02-20 02:32:00,15.0,10.0,29.86,South,189,8.0,-999.0,81,-99.99,,,-99.99,,2013-02-20 07:32:00,
2013-02-20 02:42:00,15.0,10.0,29.86,South,189,8.0,-999.0,81,-99.99,,,-99.99,,2013-02-20 07:42:00,
2013-02-20 02:52:00,15.0,10.0,29.87,South,191,7.0,-999.0,80,-99.99,,,-99.99,,2013-02-20 07:52:00,
2013-02-20 03:05:00,15.0,10.0,29.87,WSW,240,7.0,-999.0,79,-99.99,,,-99.99,,2013-02-20 08:05:00,
2013-02-20 03:11:00,15.0,10.0,29.87,WSW,240,7.0,-999.0,79,-99.99,,,-99.99,,2013-02-20 08:11:00,
2013-02-20 03:22:00,15.0,9.0,29.87,WSW,254,8.0,-999.0,78,-99.99,,,-99.99,,2013-02-20 08:22:00,
2013-02-20 03:31:00,14.0,8.0,29.87,SSW,209,9.0,-999.0,78,-99.99,,,-99.99,,2013-02-20 08:31:00,
2013-02-20 03:42:00,14.0,8.0,29.87,SSW,209,9.0,-999.0,78,-99.99,,,-99.99,,2013-02-20 08:42:00,
2013-02-20 03:52:00,14.0,9.0,29.87,SW,216,7.0,-999.0,79,-99.99,,,-99.99,,2013-02-20 08:52:00,
2013-02-20 04:02:00,14.0,-99.9,29.87,SSW,198,8.0,-999.0,-999,-99.99,,,-99.99,,2013-02-20 09:02:00,
2013-02-20 04:11:00,14.0,-99.9,29.87,SSW,198,8.0,-999.0,-999,-99.99,,,-99.99,,2013-02-20 09:11:00,
2013-02-20 04:21:00,14.0,9.0,29.86,SW,215,9.0,-999.0,80,-99.99,,,-99.99,,2013-02-20 09:21:00,
2013-02-20 04:32:00,14.0,9.0,29.87,SW,233,7.0,-999.0,80,-99.99,,,-99.99,,2013-02-20 09:32:00,
2013-02-20 04:42:00,14.0,9.0,29.87,SW,233,7.0,-999.0,80,-99.99,,,-99.99,,2013-02-20 09:42:00,
2013-02-20 04:51:00,14.0,9.0,29.88,SW,215,8.0,-999.0,80,-99.99,,,-99.99,,2013-02-20 09:51:00,
2013-02-20 05:01:00,14.0,9.0,29.88,SSW,206,6.0,-999.0,81,-99.99,,,-99.99,,2013-02-20 10:01:00,
2013-02-20 05:12:00,14.0,9.0,29.88,SSW,206,6.0,-999.0,81,-99.99,,,-99.99,,2013-02-20 10:12:00,
2013-02-20 05:22:00,14.0,9.0,29.88,WSW,237,8.0,-999.0,81,-99.99,,,-99.99,,2013-02-20 10:22:00,
2013-02-20 05:32:00,14.0,9.0,29.89,WSW,247,7.0,-999.0,81,-99.99,,,-99.99,,2013-02-20 10:32:00,
2013-02-20 05:42:00,14.0,9.0,29.89,WSW,247,7.0,-999.0,81,-99.99,,,-99.99,,2013-02-20 10:42:00,
2013-02-20 05:51:00,14.0,10.0,29.89,SSE,167,7.0,-999.0,82,-99.99,,,-99.99,,2013-02-20 10:51:00,
2013-02-20 06:02:00,14.0,10.0,29.90,SW,232,7.0,-999.0,83,-99.99,,,-99.99,,2013-02-20 11:02:00,
2013-02-20 06:11:00,14.0,10.0,29.90,WSW,244,6.0,-999.0,83,-99.99,,,-99.99,,2013-02-20 11:11:00,
2013-02-20 06:21:00,14.0,10.0,29.90,WSW,244,6.0,-999.0,83,-99.99,,,-99.99,,2013-02-20 11:21:00,
2013-02-20 06:32:00,14.0,10.0,29.91,WSW,246,5.0,-999.0,84,-99.99,,,-99.99,,2013-02-20 11:32:00,
2013-02-20 06:42:00,14.0,10.0,29.91,WSW,246,5.0,-999.0,84,-99.99,,,-99.99,,2013-02-20 11:42:00,
2013-02-20 06:52:00,14.0,10.0,29.91,South,182,6.0,-999.0,84,-99.99,,,-99.99,,2013-02-20 11:52:00,
2013-02-20 07:02:00,14.0,10.0,29.91,SW,224,4.0,-999.0,85,-99.99,,,-99.99,,2013-02-20 12:02:00,
2013-02-20 07:12:00,14.0,10.0,29.91,SW,224,4.0,-999.0,85,-99.99,,,-99.99,,2013-02-20 12:12:00,
2013-02-20 07:22:00,14.0,10.0,29.92,SW,219,5.0,-999.0,85,-99.99,,,-99.99,,2013-02-20 12:22:00,
2013-02-20 07:32:00,14.0,10.0,29.93,SW,226,5.0,-999.0,85,-99.99,,,-99.99,,2013-02-20 12:32:00,
2013-02-20 07:42:00,14.0,10.0,29.93,SW,226,5.0,-999.0,85,-99.99,,,-99.99,,2013-02-20 12:42:00,
2013-02-20 07:52:00,14.0,10.0,29.93,SSW,198,4.0,-999.0,85,-99.99,,,-99.99,,2013-02-20 12:52:00,
2013-02-20 08:01:00,14.0,10.0,29.93,WSW,251,6.0,-999.0,85,-99.99,,,-99.99,,2013-02-20 13:01:00,
2013-02-20 08:12:00,14.0,10.0,29.93,WSW,251,6.0,-999.0,85,-99.99,,,-99.99,,2013-02-20 13:12:00,
2013-02-20 08:22:00,15.0,12.0,29.94,West,277,7.0,-999.0,86,-99.99,,,-99.99,,2013-02-20 13:22:00,
2013-02-20 08:32:00,15.0,12.0,29.95,SSW,202,4.0,-999.0,86,-99.99,,,-99.99,,2013-02-20 13:32:00,
2013-02-20 08:42:00,15.0,12.0,29.95,SSW,202,4.0,-999.0,86,-99.99,,,-99.99,,2013-02-20 13:42:00,
2013-02-20 08:51:00,15.0,12.0,29.95,SW,222,6.0,-999.0,86,-99.99,,,-99.99,,2013-02-20 13:51:00,
2013-02-20 09:01:00,15.0,12.0,29.95,SW,224,4.0,-999.0,86,-99.99,,,-99.99,,2013-02-20 14:01:00,
2013-02-20 09:11:00,15.0,12.0,29.95,SW,224,4.0,-999.0,86,-99.99,,,-99.99,,2013-02-20 14:11:00,
2013-02-20 09:22:00,15.0,12.0,29.95,SW,222,6.0,-999.0,86,-99.99,,,-99.99,,2013-02-20 14:22:00,
2013-02-20 09:32:00,16.0,13.0,29.96,West,270,4.0,-999.0,86,-99.99,,,-99.99,,2013-02-20 14:32:00,
2013-02-20 09:42:00,16.0,13.0,29.96,West,270,4.0,-999.0,86,-99.99,,,-99.99,,2013-02-20 14:42:00,
2013-02-20 09:52:00,16.0,13.0,29.96,SW,216,3.0,-999.0,86,-99.99,,,-99.99,,2013-02-20 14:52:00,
2013-02-20 10:02:00,16.0,13.0,29.96,SW,233,2.0,-999.0,86,-99.99,,,-99.99,,2013-02-20 15:02:00,
2013-02-20 10:12:00,16.0,13.0,29.96,SW,233,2.0,-999.0,86,-99.99,,,-99.99,,2013-02-20 15:12:00,
2013-02-20 10:22:00,16.0,13.0,29.96,NNW,329,5.0,-999.0,86,-99.99,,,-99.99,,2013-02-20 15:22:00,
2013-02-20 10:32:00,16.0,12.0,29.97,SW,224,6.0,-999.0,85,-99.99,,,-99.99,,2013-02-20 15:32:00,
2013-02-20 10:42:00,16.0,12.0,29.97,SW,224,6.0,-999.0,85,-99.99,,,-99.99,,2013-02-20 15:42:00,
2013-02-20 10:52:00,16.0,12.0,29.98,NW,309,6.0,-999.0,84,-99.99,,,-99.99,,2013-02-20 15:52:00,
2013-02-20 11:01:00,17.0,12.0,29.98,SSW,198,6.0,-999.0,82,-99.99,,,-99.99,,2013-02-20 16:01:00,
2013-02-20 11:12:00,17.0,12.0,29.98,SSW,198,6.0,-999.0,82,-99.99,,,-99.99,,2013-02-20 16:12:00,
2013-02-20 11:22:00,16.0,11.0,29.99,NW,326,7.0,-999.0,82,-99.99,,,-99.99,,2013-02-20 16:22:00,
2013-02-20 11:32:00,16.0,12.0,30.00,West,277,5.0,-999.0,85,-99.99,,,-99.99,,2013-02-20 16:32:00,
2013-02-20 11:42:00,16.0,12.0,30.00,West,277,5.0,-999.0,85,-99.99,,,-99.99,,2013-02-20 16:42:00,
2013-02-20 11:52:00,16.0,12.0,30.01,SW,233,7.0,-999.0,85,-99.99,,,-99.99,,2013-02-20 16:52:00,
2013-02-20 12:01:00,17.0,13.0,30.01,West,272,3.0,-999.0,85,-99.99,,,-99.99,,2013-02-20 17:01:00,
2013-02-20 12:11:00,17.0,13.0,30.01,WSW,250,2.0,-999.0,85,-99.99,,,-99.99,,2013-02-20 17:11:00,
2013-02-20 12:21:00,17.0,13.0,30.01,WSW,250,2.0,-999.0,85,-99.99,,,-99.99,,2013-02-20 17:21:00,
2013-02-20 12:32:00,18.0,14.0,30.01,NW,318,3.0,-999.0,84,-99.99,,,-99.99,,2013-02-20 17:32:00,
2013-02-20 12:42:00,18.0,14.0,30.01,NW,318,3.0,-999.0,84,-99.99,,,-99.99,,2013-02-20 17:42:00,
2013-02-20 12:52:00,18.0,14.0,30.01,NW,315,4.0,-999.0,84,-99.99,,,-99.99,,2013-02-20 17:52:00,
2013-02-20 13:02:00,17.0,13.0,30.03,NW,318,6.0,-999.0,84,-99.99,,,-99.99,,2013-02-20 18:02:00,
2013-02-20 13:11:00,17.0,13.0,30.03,NW,318,6.0,-999.0,84,-99.99,,,-99.99,,2013-02-20 18:11:00,
2013-02-20 13:22:00,17.0,13.0,30.03,NW,319,5.0,-999.0,85,-99.99,,,-99.99,,2013-02-20 18:22:00,
2013-02-20 13:32:00,16.0,12.0,30.03,NW,315,8.0,-999.0,84,-99.99,,,-99.99,,2013-02-20 18:32:00,
2013-02-20 13:42:00,16.0,12.0,30.03,NW,315,8.0,-999.0,84,-99.99,,,-99.99,,2013-02-20 18:42:00,
2013-02-20 13:52:00,17.0,13.0,30.03,NW,311,3.0,-999.0,85,-99.99,,,-99.99,,2013-02-20 18:52:00,
2013-02-20 14:01:00,18.0,14.0,30.03,NW,322,3.0,-999.0,84,-99.99,,,-99.99,,2013-02-20 19:01:00,
2013-02-20 14:11:00,18.0,14.0,30.03,NW,322,3.0,-999.0,84,-99.99,,,-99.99,,2013-02-20 19:11:00,
2013-02-20 14:21:00,19.0,14.0,30.04,WSW,250,6.0,-999.0,82,-99.99,,,-99.99,,2013-02-20 19:21:00,
2013-02-20 14:32:00,18.0,13.0,30.04,SSW,209,7.0,-999.0,81,-99.99,,,-99.99,,2013-02-20 19:32:00,
2013-02-20 14:41:00,18.0,13.0,30.04,SSW,209,7.0,-999.0,81,-99.99,,,-99.99,,2013-02-20 19:41:00,
2013-02-20 14:52:00,18.0,13.0,30.04,SSW,209,7.0,-999.0,81,-99.99,,,-99.99,,2013-02-20 19:52:00,
2013-02-20 15:01:00,17.0,12.0,30.06,WNW,288,3.0,-999.0,81,-99.99,,,-99.99,,2013-02-20 20:01:00,
2013-02-20 15:11:00,17.0,12.0,30.06,WNW,288,6.0,-999.0,80,-99.99,,,-99.99,,2013-02-20 20:11:00,
2013-02-20 15:21:00,17.0,12.0,30.06,WNW,288,6.0,-999.0,80,-99.99,,,-99.99,,2013-02-20 20:21:00,
2013-02-20 15:31:00,17.0,12.0,30.07,WSW,257,2.0,-999.0,80,-99.99,,,-99.99,,2013-02-20 20:31:00,
2013-02-20 15:41:00,17.0,12.0,30.07,WSW,257,2.0,-999.0,80,-99.99,,,-99.99,,2013-02-20 20:41:00,
2013-02-20 15:51:00,17.0,12.0,30.07,NW,309,6.0,-999.0,80,-99.99,,,-99.99,,2013-02-20 20:51:00,
2013-02-20 16:01:00,17.0,12.0,30.07,WNW,287,3.0,-999.0,80,-99.99,,,-99.99,,2013-02-20 21:01:00,
2013-02-20 16:11:00,17.0,12.0,30.07,WNW,287,3.0,-999.0,80,-99.99,,,-99.99,,2013-02-20 21:11:00,
2013-02-20 16:21:00,17.0,12.0,30.08,WSW,250,5.0,-999.0,80,-99.99,,,-99.99,,2013-02-20 21:21:00,
2013-02-20 16:32:00,17.0,12.0,30.08,WNW,285,5.0,-999.0,80,-99.99,,,-99.99,,2013-02-20 21:32:00,
2013-02-20 16:42:00,17.0,12.0,30.08,WNW,285,5.0,-999.0,80,-99.99,,,-99.99,,2013-02-20 21:42:00,
2013-02-20 16:52:00,17.0,12.0,30.08,West,267,4.0,-999.0,81,-99.99,,,-99.99,,2013-02-20 21:52:00,
2013-02-20 17:02:00,17.0,12.0,30.10,West,272,3.0,-999.0,80,-99.99,,,-99.99,,2013-02-20 22:02:00,
2013-02-20 17:11:00,17.0,12.0,30.10,West,272,3.0,-999.0,80,-99.99,,,-99.99,,2013-02-20 22:11:00,
2013-02-20 17:21:00,17.0,12.0,30.10,WSW,258,3.0,-999.0,80,-99.99,,,-99.99,,2013-02-20 22:21:00,
2013-02-20 17:31:00,17.0,12.0,30.11,SW,230,2.0,-999.0,81,-99.99,,,-99.99,,2013-02-20 22:31:00,
2013-02-20 17:43:00,17.0,12.0,30.11,SW,230,2.0,-999.0,81,-99.99,,,-99.99,,2013-02-20 22:43:00,
2013-02-20 17:51:00,17.0,12.0,30.11,SW,215,3.0,-999.0,82,-99.99,,,-99.99,,2013-02-20 22:51:00,
2013-02-20 18:01:00,17.0,12.0,30.12,SW,220,3.0,-999.0,82,-99.99,,,-99.99,,2013-02-20 23:01:00,
2013-02-20 18:12:00,17.0,12.0,30.12,SW,220,3.0,-999.0,82,-99.99,,,-99.99,,2013-02-20 23:12:00,
2013-02-20 18:22:00,16.0,12.0,30.13,SW,226,3.0,-999.0,83,-99.99,,,-99.99,,2013-02-20 23:22:00,
2013-02-20 18:32:00,16.0,12.0,30.13,SW,226,2.0,-999.0,84,-99.99,,,-99.99,,2013-02-20 23:32:00,
2013-02-20 18:42:00,16.0,12.0,30.13,SW,226,2.0,-999.0,84,-99.99,,,-99.99,,2013-02-20 23:42:00,
2013-02-20 18:52:00,16.0,12.0,30.13,SW,224,1.0,-999.0,85,-99.99,,,-99.99,,2013-02-20 23:52:00,
2013-02-20 19:03:00,16.0,12.0,30.14,WSW,240,1.0,-999.0,85,-99.99,,,-99.99,,2013-02-21 00:03:00,
2013-02-20 19:11:00,16.0,12.0,30.14,WSW,240,1.0,-999.0,85,-99.99,,,-99.99,,2013-02-21 00:11:00,
2013-02-20 19:22:00,16.0,12.0,30.14,West,270,1.0,-999.0,85,-99.99,,,-99.99,,2013-02-21 00:22:00,
2013-02-20 19:32:00,16.0,12.0,30.14,West,268,1.0,-999.0,85,-99.99,,,-99.99,,2013-02-21 00:32:00,
2013-02-20 19:42:00,16.0,12.0,30.14,West,268,1.0,-999.0,85,-99.99,,,-99.99,,2013-02-21 00:42:00,
2013-02-20 19:52:00,16.0,12.0,30.14,SW,230,1.0,-999.0,84,-99.99,,,-99.99,,2013-02-21 00:52:00,
2013-02-20 20:01:00,16.0,12.0,30.13,SW,226,1.0,-999.0,84,-99.99,,,-99.99,,2013-02-21 01:01:00,
2013-02-20 20:12:00,16.0,12.0,30.13,SW,226,1.0,-999.0,84,-99.99,,,-99.99,,2013-02-21 01:12:00,
2013-02-20 20:21:00,16.0,12.0,30.13,SW,230,1.0,-999.0,84,-99.99,,,-99.99,,2013-02-21 01:21:00,
2013-02-20 20:32:00,16.0,12.0,30.13,SSW,209,1.0,-999.0,83,-99.99,,,-99.99,,2013-02-21 01:32:00,
2013-02-20 20:42:00,16.0,12.0,30.13,SSW,209,1.0,-999.0,83,-99.99,,,-99.99,,2013-02-21 01:42:00,
2013-02-20 20:52:00,16.0,12.0,30.13,West,277,1.0,-999.0,83,-99.99,,,-99.99,,2013-02-21 01:52:00,
2013-02-20 21:02:00,16.0,12.0,30.14,NW,305,1.0,-999.0,83,-99.99,,,-99.99,,2013-02-21 02:02:00,
2013-02-20 21:11:00,16.0,12.0,30.14,NW,305,1.0,-999.0,83,-99.99,,,-99.99,,2013-02-21 02:11:00,
2013-02-20 21:22:00,16.0,12.0,30.14,WNW,298,1.0,-999.0,83,-99.99,,,-99.99,,2013-02-21 02:22:00,
2013-02-20 21:32:00,16.0,12.0,30.13,SW,234,1.0,-999.0,83,-99.99,,,-99.99,,2013-02-21 02:32:00,
2013-02-20 21:42:00,16.0,12.0,30.13,SW,234,1.0,-999.0,83,-99.99,,,-99.99,,2013-02-21 02:42:00,
2013-02-20 21:51:00,16.0,12.0,30.13,SW,234,1.0,-999.0,83,-99.99,,,-99.99,,2013-02-21 02:51:00,
2013-02-20 22:02:00,16.0,12.0,30.13,SW,217,1.0,-999.0,83,-99.99,,,-99.99,,2013-02-21 03:02:00,
2013-02-20 22:12:00,16.0,12.0,30.13,SW,217,1.0,-999.0,83,-99.99,,,-99.99,,2013-02-21 03:12:00,
2013-02-20 22:21:00,16.0,12.0,30.13,SW,226,1.0,-999.0,84,-99.99,,,-99.99,,2013-02-21 03:21:00,
2013-02-20 22:32:00,16.0,12.0,30.13,SW,230,2.0,-999.0,84,-99.99,,,-99.99,,2013-02-21 03:32:00,
2013-02-20 22:42:00,16.0,12.0,30.13,SW,230,2.0,-999.0,84,-99.99,,,-99.99,,2013-02-21 03:42:00,
2013-02-20 22:51:00,16.0,12.0,30.13,SW,234,1.0,-999.0,85,-99.99,,,-99.99,,2013-02-21 03:51:00,
2013-02-20 23:01:00,16.0,12.0,30.13,SW,224,2.0,-999.0,85,-99.99,,,-99.99,,2013-02-21 04:01:00,
2013-02-20 23:11:00,16.0,12.0,30.13,SW,224,2.0,-999.0,85,-99.99,,,-99.99,,2013-02-21 04:11:00,
2013-02-20 23:22:00,16.0,12.0,30.13,SW,224,2.0,-999.0,85,-99.99,,,-99.99,,2013-02-21 04:22:00,
2013-02-20 23:32:00,16.0,12.0,30.13,SW,232,2.0,-999.0,85,-99.99,,,-99.99,,2013-02-21 04:32:00,
2013-02-20 23:42:00,16.0,12.0,30.13,SW,232,2.0,-999.0,85,-99.99,,,-99.99,,2013-02-21 04:42:00,
2013-02-20 23:52:00,16.0,12.0,30.12,SW,229,2.0,-999.0,85,-99.99,,,-99.99,,2013-02-21 04:52:00,